Timeline UpdatesTrip UpdatesNews PostsPvt PostsTravel TipsAdmin PostsConv PostsFollowed PostsChat RequestsBlog PostsPNR Posts

Disclaimer
Search
 
 
Sat Jul 26, 2014 10:36:05 ISTHomeTrainsΣChainsAtlasPNRForumGalleryNewsFAQTripsMembersLoginFeedback
Latest...

Wed May 14, 2014 (03:45PM)
⇐ Return Journey: Train# 12332

12331/Himgiri Express

Oct 13 2013 (6:24PM)
Change Departure Station:
Change Arrival Station:
Post a Train Travel TipPost a Train Travel Tip **new
Post a Comment/Question/Picture/VideoPost a Comment/Question/Picture/Video
Inaugural Run
Mon Jan 01, 1979
Pantry/Catering
✓ Pantry Car Avbl
✓ Catering Avbl
RSA - Rake Sharing
no rake sharing
Rake/Coach Composition
LOCO-SLR-GEN-GEN-S1-S2-S3-S4-S5-S6-S7-S8-S9-S10-S11-S12-S13-PC-B1-B2-B3-A1-HA1-GEN-SLR
Loco
SGUJ WDP-4/ 4B or HWH/LKO WDM-3D
News    PNR    Forum    Time-Table    Availability    Fare Chart    Map    Arr/Dep History    Trips    Gallery    ΣChains    X/O    Timeline    
Travel Time: 36h 35m    30 halts    Distance: 2020 km    Avg Speed: 55 km/hr
Type: SuperFast
Zone: ER/Eastern
Departs @ 23:55 (Avg 1h 9m late)
Platform# 8
  T  FS
Kolkata Howrah Junction/HWH 
Arrives @ 12:30 +2 nights (Avg 3h 22m late)
Platform# 3
SM  T  
Jammu Tawi/JAT 

30 halts. 384 intermediate Stations between Kolkata Howrah Junction and Jammu Tawi

Hide intermediate Stations  Show Old Time-Table

#CodeStation NameX/OArrivesAvgDepartsAvgHaltPFDay#KmSpeedElevZoneAddress
1HWH»Kolkata Howrah Junction (23)»  -23:55+1:09810.07710mERHowrah 711101, West Bengal
1.1HWHGHowrah Goods Cabin  23:56-23:56-  11.0 776mERHowrah, West Bengal
1.2SYAELiluah Sorting  23:58-23:58-  13.3 775mERLiluah Sorting, West Bengal
1.3LLHLiluah (5)  23:59-23:59-  14.5 7710mERHowrah, West Bengal
1.4BEQBelur (5)  00:00-00:00-  26.2 778mERHowrah, West Bengal
1.5BLYBally (6)  00:01-00:01-  28.3 778mERDist - Howrah, West Bengal
1.6BZLBelanagar (2)  00:03-00:03-  210.8 778mERNational Highway 34, West Bengal
1.7DKAEDankuni Junction (5)  00:06-00:06-  214.5 777mERDist - Hooghly, West Bengal
1.8GBRAGobra (3)  00:08-00:08-  216.8 776mERStation Pally, West Bengal
1.9JOXJanai Road (4)  00:11-00:11-  220.1 778mERJanai Rd Railway Station, West Bengal
1.10BPAEBegumpur (3)  00:12-00:12-  222.0 7711mERChanditala-Sreerampore Rd, West Bengal
1.11BRPABarui Para (4)X  00:15-00:15-  225.8 7712mER31 no Rd, West Bengal
1.12MBEMirzapur Bankipur (3)  00:18-00:18-  229.0 7716mERSingpara Rd, West Bengal
1.13BLAEBalarambati (3)  00:19-00:19-  231.0 7716mERState Highway 2, West Bengal
1.14KQUKamarkundu (5)  00:20-00:20-  232.7 7713mERDist - Hooghly, West Bengal
1.15KQLSKamarkundu (lower) (3)  00:21-00:21-  232.8 7712mERKamarkundu, West Bengal
1.16MDSEMadhu Sudanpur (3)  00:23-00:23-  235.6 7711mERState Highway 2, West Bengal
1.17CDAEChandanpur (4)  00:26-00:26-  240.0 7715mERDist - hooghly, West Bengal
1.18PBZPorabazar (3)  00:29-00:29-  244.3 7714mERPorabazar Makalpur Rd, West Bengal
1.19BMAEBelmuri (3)  00:31-00:31-  246.3 7715mERBelmuri Dhaniakhali Rd, West Bengal
1.20DNHLDhaniakhali Halt (3)  00:33-00:33-  248.4 7714mERChunchura-Dhaniakali Rd, West Bengal
1.21SHBCSibaichandi (3)  00:35-00:35-  251.2 7716mERBainchi-Dhaniakali Road, West Bengal
1.22CRAECheragram Block Hut  00:37-00:37-  253.6 7716mERDurgapur Expy, West Bengal
1.23HIHHajigarh (3)  00:38-00:38-  255.1 7720mERDurgapur Expressway, West Bengal
1.24GRAEGurap (4)  00:40-00:40-  257.3 7720mERMagra-Gurup Road, West Bengal
1.25JPQJhapandanga (3)  00:43-00:43-  262.2 7721mERBurdwan., West Bengal
1.26JRAEJaugram (3)  00:45-00:45-  264.2 7723mERAstai, West Bengal
1.27NBAENabagram (3)  00:48-00:48-  268.4 7722mERDattapur, West Bengal
1.28MSAEMasagram Junction (6)  00:51-00:51-  271.5 7725mERDist - bardhaman, West Bengal
1.29CHCChanchai (3)  00:53-00:53-  274.6 7725mERChanchai, West Bengal
1.30PRAEPalla Road (4)  00:55-00:55-  277.5 7730mERDuragapur Expressway (NH 2), West Bengal
1.31SKGSaktigarh (7)X  00:59-00:59-  282.3 7728mERSaktigarh, West Bengal
1.32GRPGangpur (4)XO  01:03-01:03-  287.4 7729mERGangpur, West Bengal
1.33BWNBarddhaman Junction (8)X  01:08-01:08-  294.4 7734mERDist - Barddhaman, West Bengal
1.34TITTalit (4)  01:14-01:14-  2102.0 7737mERDist - Bardhaman, West Bengal
1.35KANKhana Junction (5)  01:19-01:19-  2107.5 7742mERDist - Bardhaman, West Bengal
1.36INCIIshan Chandi Halt (2)X  01:21-01:21-  2110.8 7743mERDist - Bardhaman, West Bengal
1.37GLIGalsi (4)X  01:26-01:26-  2117.4 7747mERBardhaman, West Bengal
1.38PAJParaj (4)  01:31-01:31-  2123.8 7752mERNational Highway 2, West Bengal
1.39MNAEMankar (4)X  01:38-01:38-  2132.1 7765mERMankur, West Bengal
1.40PANPanagarh (4)X  01:46-01:46-  2142.3 7770mERKaksa, West Bengal
1.41RBHRajbandh  01:52-01:52-  2150.1 7772mERRajbandh Rail Station Rd, West Bengal
1.42DGRDurgapur (5)  01:58-01:58-  2157.9 7771mERDurgapur, West Bengal
1.43DCOPDurgapur Coke Oven PlantX  02:00-02:00-  2160.4 7778mERDurgapur, West Bengal
1.44OYRWaria (4)  02:05-02:05-  2166.8 7772mERDurgapur, West Bengal
1.45POLPinjrapolX  02:06-02:06-  2168.7 7780mERDurgapur, West Bengal
1.46EOCAndal East Outer Cabin  02:09-02:09-  2172.5 7780mERAndal, West Bengal
1.47UDLEAndal East Cabin  02:10-02:10-  2172.9 7780mERAndal, West Bengal
1.48UDLAndal Junction (6)  02:11-02:11-  2174.9 7786mERAndal, West Bengal
1.49BQTBakhtarnagar  02:13-02:13-  2177.7 7787mERKajora, West Bengal
1.50RNGRaniGanj (4)X  02:17-02:17-  2182.2 7792mERRaniganj, West Bengal
1.51NMCNimchaX  02:20-02:20-  2186.1 77106mERRaniganj, West Bengal
1.52KPKKalipahari (4)X  02:27-02:27-  2195.1 77106mERBardhaman distt, West Bengal
1.53ASNEAsansol East  02:30-02:30-  2198.7 77110mERAsansol, West Bengal
2ASNAsansol Junction (7)X  02:31+1:1902:36+1:225m32200.463113mERDist - bardhaman, West Bengal
2.1BCQBarachak Junction (4)  02:41-02:41-  2205.4 63127mERdist - bardhaman, West Bengal
2.2STNSitarampur Junction (5)  02:44-02:44-  2209.1 63139mERG T Rd Before Asansol, West Bengal
2.3SLSSalanpur (2)X  02:49-02:49-  2213.8 63156mERSalanpur Station, West Bengal
2.4RNPRRupnarayanpur (3)X  02:56-02:56-  2220.9 63191mERChittaranjan, West Bengal
3CRJChittaranjan (3)  03:00+1:3403:01+1:351m32225.487182mERMihijam, Jharkhand
3.1BMBodma  03:05-03:05-  2230.6 87179mERChittaranjan, West Bengal
3.2JMTJamtara (2)X  03:11-03:11-  2239.8 87201mERJamtara, Jharkhand
3.3KEEKaseetarX  03:17-03:17-  2247.9 87219mERJamtara, Jharkhand
3.4VDSVidyasagar (2)  03:23-03:23-  2257.7 87250mERJamtara, Jharkhand
3.5MNCMadankata (2)  03:29-03:29-  2266.5 87208mERBarrage on Ajoy River, Jharkhand
3.6JRWJoramowX  03:33-03:33-  2272.0 87208mERBarrage on Ajoy River, Jharkhand
4MDPMadhupur Junction (4)  03:40+1:5003:42+1:522m22281.832254mER06432-224478, Jharkhand
4.1NPZNawapatra  03:53-03:53-  2287.8 32221mERDeoghar, Jharkhand
4.2MUWMathurapur (2)  04:04-04:04-  2293.5 32261mERDeoghar, Jharkhand
4.3SNQSankarpurXO  04:15-04:15-  2299.7 32242mERDeoghar, Jharkhand
4.4KBQKumrabad RohiniX  04:24-04:24-  2304.5 32231mERKumrabad Rohi, Jharkhand
5JSMEJasidih Junction (5)  04:36+1:3604:41+1:375m32310.925271mERJasidih, Jharkhand
5.1TTNTulsitanrX  04:57-04:57-  2317.9 25272mERDeoghar, Jharkhand
5.2LHBLahabon (3)  05:17-05:17-  2326.2 25259mERDeoghar, Jharkhand
5.3TLBTalwa BazarX  05:35-05:35-  2333.7 25233mERTola Siantanr, Bihar
5.4STLSimultala (2)X  05:41-05:41-  2336.3 25247mERSimultala, Bihar
5.5GHNGhorparan  05:56-05:56-  2342.8 25230mERSwami Vivekanand College Rd, Bihar
5.6NRGONarganjo Halt (2)  06:06-06:06-  2347.0 25188mERState Highway 18, Bihar
5.7RJLARajla  06:15-06:15-  2350.9 25152mERTola Agaria Kalan, Bihar
6JAJJhajha (4)X  06:25+5506:35+5610m--2355.087143mECRJhajha, Bihar
6.1DPXDadpur  06:40-06:40-  2362.2 87116mECRDadpur, Bihar
6.2GHRGidhaur (2)X  06:43-06:43-  2366.5 87106mECRState Highway 18, Bihar
6.3CUXChaura  06:51-06:51-  2378.4 8779mECRState Highway 18, Bihar
7JMUJamui (3)  06:53+1:0406:55+1:052m12381.04181mECRState Highway 72, Bihar
7.1KDERKunder HaltX  07:10-07:10-  2391.1 4166mECRSH 18, Bihar
7.2BFMBhalui  07:21-07:21-  2398.8 4156mECRState Highway 18, Bihar
7.3MNPMananpur (2)X  07:25-07:25-  2401.4 4157mECRState Highway 18, Bihar
7.4BLHRBalahapur Halt  07:28-07:28-  2403.3 4153mECRSH 18, Bihar
7.5BSQPBansipur  07:29-07:29-  2403.9 4153mECRKiul, Bihar
7.6LCKLakhochak Halt  07:30-07:30-  2404.7 4152mECRKiul, Bihar
7.7MHLTMahesh Leta Halt  07:32-07:32-  2405.9 4152mECRKiul, Bihar
8KIULKiul Junction (5)  07:35+5807:37+1:012m--2408.36453mECRDist. Lakhisarai, Bihar
8.1LKRLuckeesarai Junction (2)  07:38-07:38-  2409.7 6452mECRLakhisarai, Bihar
8.2MKBMankatha  07:43-07:43-  2415.2 6447mECRNational Highway 80, Bihar
8.3DJSDhurani Jwas Halt  07:45-07:45-  2417.2 6446mECRLakhisarai, Bihar
8.4DMRXDumri Halt (1)  07:48-07:48-  2420.5 6449mECRNational Highway 80, Bihar
8.5GGSYGanga Sahay  07:50-07:50-  2422.1 6444mECRKIUL, Bihar
8.6BRYABarhiya (3)XO  07:52-07:52-  2424.8 6447mECRBarahiya, Bihar
8.7RDUMRampur Dumra (3)  07:58-07:58-  2430.3 6446mECRNational Highway 80, Bihar
8.8HTZHathidah Junction (2)X  08:01-08:01-  2434.1 6450mECRMusahari, Bihar
8.9TALLTall JunctionX  08:05-08:05-  2438.1 6444mECRTal, Bihar
8.10ANAHAunta HaltX  08:05-08:05-  2438.7 6444mECRPanchmahla, Bihar
9MKAMokama Junction (3)  08:09+1:2408:11+1:252m--2442.59148mECRPatna, Bihar
9.1SIVNSivnar HaltX  08:12-08:12-  2444.7 9149mECRPatna, Bihar
9.2BHADBarhapur HaltX  08:14-08:14-  2447.4 9146mECRPatna, Bihar
9.3MORMor  08:16-08:16-  2449.8 9146mECRMor, Bihar
9.4KNHPKanhaipurX  08:18-08:18-  2453.1 9147mECRMor, Bihar
9.5MMKBMemrakhabad  08:19-08:19-  2455.4 9149mECRMor, Bihar
9.6PHKPunarakh  08:21-08:21-  2458.0 9151mECRPunarakh, Bihar
9.7LEBLemuabadX  08:23-08:23-  2460.6 9149mECRLemuabad, Bihar
9.8RLERailey Halt  08:24-08:24-  2462.4 9148mECRPatna, Bihar
9.9SHTSahari Halt  08:26-08:26-  2465.8 9145mECRPatna, Bihar
9.10BARHBarh (3)X  08:28-08:28-  2468.4 9149mECRBarh, Bihar
9.11ACUAchuara  08:32-08:32-  2474.0 9150mECRBarh, Bihar
9.12ATLAthmal Gola (2)  08:34-08:34-  2477.6 9152mECRPatna, Bihar
9.13JPMLJai Prakash Mahuli  08:36-08:36-  2480.5 9147mECRPatna, Bihar
10BKPBakhtiyarpur Junction (5)X  08:40+1:4008:42+1:422m--2486.78151mECRPatna, Bihar
10.1TKBGTeka Bigha Halt  08:45-08:45-  2490.8 8151mECRTeka Bigha, Bihar
10.2KWOKarauta (2)  08:47-08:47-  2493.0 8154mECRKarauta, Bihar
10.3SMBHSalim Pur Bihar  08:48-08:48-  2495.4 8152mECRSalim Pur, Bihar
10.4MJMManjhauligram Halt  08:50-08:50-  2497.3 8153mECRPatna, Bihar
10.5KOOKhusropur (2)  08:53-08:53-  2501.2 8152mECRPatna, Bihar
10.6HDEHardas Bigha  08:57-08:57-  2507.4 8153mECRFatwah, Bihar
10.7BCYNBudhdevchak Yadav Nagar  08:57-08:57-  2507.4 8153mECRFatwah, Bihar
10.8FUTFatwa (6)X  08:59-08:59-  2509.7 8153mECRPatna, Bihar
10.9BKGBanka Ghat (2)X  09:03-09:03-  2515.8 8156mECRPatna, Bihar
10.10DDGJDeedarganjX  09:06-09:06-  2519.2 8154mECRPatna, Bihar
11PNCPatna Saheb (3)  09:08+1:5909:10+2:022m--2521.91259mECRPatna, Bihar
11.1GZHGulzarbagh (3)X  09:25-09:25-  2525.0 1255mECRPatna, Bihar
11.2RJPBRajendra Nagar Bihar (4)  09:47-09:47-  2529.2 1255mECRPatna 800001, Bihar
12PNBEPatna Junction (10)10:00+1:3610:15+1:3815m42531.83857mECRPatna 800001, Bihar
12.1SCYSachiwalay Halt (2)  10:19-10:19-  2534.0 3857mECRPatna, Bihar
12.2PWSPhulwari Sharif (3)X  10:25-10:25-  2537.8 3858mECRPatna, Bihar
13DNRDanapur (5)X  10:30+1:4910:32+1:502m--2541.26858mECRKhagaul, Bihar
13.1NEONeora (2)X  10:37-10:37-  2547.2 6861mECRNational Highway 98, Bihar
13.2GNHIGandhi Halt  10:40-10:40-  2550.2 6858mECRPatna, Bihar
13.3SDESadisopur (2)  10:44-10:44-  2554.3 6864mECRSadisopur, Bihar
13.4PATLPatel Halt  10:46-10:46-  2556.5 6861mECRPatna, Bihar
13.5BTABihta (2)  10:47-10:47-  2558.5 6862mECRDistt: Patna, Bihar
13.6VHCHChakki Block Cabin  10:53-10:53-  2564.8 6863mECRNational Highway 30, Bihar
13.7KWRKoelwar (2)  10:55-10:55-  2567.3 6865mECRNational Highway 30, Bihar
13.8KUAKulharia (2)X  10:58-10:58-  2570.8 6861mECRChandi Sahar Rd, Bihar
13.9JMIRJamira  11:03-11:03-  2575.8 68 ECRPatna, Bihar
14ARAAra Junction (3)  11:07+1:5411:09+1:542m22580.78463mECRarrah( 06182-233411), Bihar
14.1JGWLJagjivanX  11:11-11:11-  2583.9 8459mECRBuxar, Bihar
14.2KRSKarisath (2)  11:16-11:16-  2590.6 8465mECRKarisath, Bihar
14.3KYAKauriya  11:19-11:19-  2594.3 8461mECRBuxar, Bihar
14.4XSANSarvodaya Halt  11:20-11:20-  2596.2 8463mECRBuxar, Bihar
14.5RNTERamanand TewaryO  11:22-11:22-  2598.3 8463mECRBuxar, Bihar
14.6BEABihiya (3)  11:24-11:24-  2602.1 8467mECRBehea, Bihar
14.7ASJPAmar Shahid Jagdev Prasad Halt  11:27-11:27-  2605.9 8463mECRArrah Buxar Rd, Bihar
14.8BYNBanahi (2)  11:29-11:29-  2608.1 8467mECRBanahi, Bihar
14.9SKRISikariaX  11:31-11:31-  2612.0 8463mECRKuawan Tikathi Rd, Bihar
14.10RPRRaghunathpur (4)  11:35-11:35-  2616.9 8469mECRRaghunathpur, Bihar
14.11VKDHVeer Kunwar Singh Dharauli Halt  11:38-11:38-  2621.2 8465mECRArrah Buxar Rd, Bihar
14.12TWGTwining Ganj  11:41-11:41-  2625.3 8470mECRArrah Buxar Rd, Bihar
14.13DUREDumraon (3)  11:46-11:46-  2632.9 8470mECRDumraon, Bihar
14.14BUEBarunaX  11:51-11:51-  2640.0 8465mECRArrah Buxar Rd, Bihar
15BXRBuxar (3)  11:58+2:0712:00+2:092m22649.25367mECRBuxar, Bihar
15.1PWXPPawani Kumarpur Halt  12:10-12:10-  2658.1 5366mECRSukarwallia Rd, Bihar
15.2CSAChausa (2)  12:12-12:12-  2660.2 5368mECRState Highway 14, Bihar
15.3BQWBarakalan  12:19-12:19-  2666.0 5368mECRState Highway 14, Bihar
15.4GMRGahmar (2)  12:23-12:23-  2669.4 5368mECRDistt: Ghazipur, Uttar Pradesh
15.5KKRHKarahiaX  12:28-12:28-  2673.4 5372mECRPhooli Rd, Uttar Pradesh
15.6BWHBhadaura (2)X  12:32-12:32-  2677.6 5369mECRGhazipur, Uttar Pradesh
15.7USKUsia KhasO  12:36-12:36-  2681.1 5369mECRDildarnagar, Uttar Pradesh
15.8DLNDildarnagar Junction (2)  12:41-12:41-  2685.4 5372mECRDildarnagar, Uttar Pradesh
15.9DRVDarauli (2)  12:49-12:49-  2692.5 5370mECRDarauli, Uttar Pradesh
15.10ZNAZamania (2)X  12:57-12:57-  2698.9 5377mECRGhazipur, Uttar Pradesh
15.11BHCLBahora Chandil  13:02-13:02-  2703.9 5372mECRDhanapur Avahi Rd, Uttar Pradesh
15.12DHADheenaX  13:11-13:11-  2711.3 5374mECRDheena, Uttar Pradesh
15.13TLAMTulsi AshramO  13:19-13:19-  2718.6 5377mECRState Highway 69, Uttar Pradesh
15.14SLDSakaldiha (2)X  13:26-13:26-  2724.9 5381mECRState Highway 69, Uttar Pradesh
15.15KCAKuchman (2)  13:35-13:35-  2732.5 5379mECRKuchman, Uttar Pradesh
15.16EOCMEOCMXO  13:37-13:37-  2734.5 5379mECRChandauli Mjhwr, Uttar Pradesh
15.17MGMYMughal Sarai Marshalling Yard  13:44-13:44-  2740.4 5381mECRMughalsarai, Uttar Pradesh
16MGSMughal Sarai Junction (8)  13:47+1:4514:02+1:4815m52743.12883mECRMughalsarai 232101, Uttar Pradesh
16.1BHBVBlock Hut BX  14:05-14:05-  2744.7 2882mNRMughalsarai Rly. Settlement, Uttar Pradesh
16.2VYNVyasnagar  14:14-14:14-  2748.9 2881mNRNational Highway 2, Uttar Pradesh
16.3BBRMBaba Bhagwan Ram Halt  14:21-14:21-  2751.8 2879mNRVaranasi, Uttar Pradesh
16.4KEIKashi (3)X  14:25-14:25-  2754.1 2885mNRVaranasi, Uttar Pradesh
17BSBVaranasi Junction (9)  14:37+2:1114:47+2:1410m52759.66882mNRVaranasi 221002, Uttar Pradesh
17.1BSBYVaranesi YardX  14:48-14:48-  2760.6 6881mNRVaranasi, Uttar Pradesh
17.2SOPShivpur (3)  14:52-14:52-  2765.2 6881mNRVaranasi, Uttar Pradesh
17.3BRPTBirapatti (2)  14:58-14:58-  2771.5 6884mNRRd Varanasi Uttar Pradesh, Uttar Pradesh
17.4BTPBabatpur (2)X  15:03-15:03-  2778.1 6884mNRSatomahua-Mangari Rd, Uttar Pradesh
17.5PDRDPindra Road (2)  15:08-15:08-  2783.5 6881mNRSatomahua-Mangari Rd, Uttar Pradesh
17.6KSFKhalispur (2)  15:12-15:12-  2787.4 6883mNRPhulpur, Uttar Pradesh
17.7TLMDTrilochan Mahdo (2)  15:16-15:16-  2792.6 6883mNRNational Highway 56, Uttar Pradesh
17.8JLLJalalGanj (2)  15:22-15:22-  2798.8 6887mNRJalalganj Railway Station, Uttar Pradesh
17.9SIQSarkoni (2)  15:27-15:27-  2804.7 6885mNRBandipur, Uttar Pradesh
17.10ZBDZafarabad Junction (4)  15:32-15:32-  2810.8 6883mNRNational Highway 56, Uttar Pradesh
17.11JNUKJaunpur Kutchary  15:36-15:36-  2814.4 6885mNRJaunpur, Uttar Pradesh
18JOPJaunpur City (3)  15:38+2:4215:40+2:422m32817.17987mNRJaunpur, Uttar Pradesh
18.1BKSABakhsha (1)  15:48-15:48-  2828.0 7987mNRBaksha, Uttar Pradesh
18.2SVZSarai Harkhu (1)X  15:54-15:54-  2836.1 7989mNRNational Highway 56, Uttar Pradesh
18.3SKNSri Krishna Nagar (2)  16:01-16:01-  2845.0 7992mNRBadlapur, Uttar Pradesh
18.4HRPGHarpalGanj (1)  16:07-16:07-  2853.0 7990mNRNational Highway 56, Uttar Pradesh
18.5NIMGNima Gopalpur Halt (2)  16:12-16:12-  2860.0 7993mNRShailkha, Uttar Pradesh
18.6KEPRKoiripur (1)  16:15-16:15-  2863.7 7996mNRNational Highway 56, Uttar Pradesh
18.7CHDAChanda Halt  16:20-16:20-  2869.3 79100mNRChanda, Uttar Pradesh
18.8MWPMahrani Pachhim (1)  16:22-16:22-  2872.9 7990mNRNational Highway 56, Uttar Pradesh
18.9LBALambhua (1)  16:28-16:28-  2880.9 7997mNRLambhua, Uttar Pradesh
18.10BDINBhadaiyan (1)  16:34-16:34-  2887.8 7997mNRBhadaiya, Uttar Pradesh
18.11PKXPakhruli (2)  16:38-16:38-  2893.8 79101mNRSahupur, Uttar Pradesh
19SLNSultanpur Junction (3)  16:45+2:1816:50+2:195m32902.88499mNRSultanpur., Uttar Pradesh
19.1BDKNBandhua Kalan (2)  16:56-16:56-  2911.5 84106mNRNational Highway 56, Uttar Pradesh
19.2SHNGShivnagar (2)  17:06-17:06-  2924.8 84105mNRNational Highway 56, Uttar Pradesh
19.3MFKAMusafir Khana (3)  17:13-17:13-  2934.4 84105mNRMusfirKhana, Uttar Pradesh
19.4AHZAdhinpur (2)  17:19-17:19-  2942.9 84109mNRNational Highway 56, Uttar Pradesh
19.5WGJWaris Ganj (1)  17:21-17:21-  2946.4 84114mNRWaris Ganj, Uttar Pradesh
20NHHNihalgarh (3)  17:26+2:4617:28+2:462m12953.340108mNRJagdishpur, Uttar Pradesh
20.1SYWSindurwa (3)  17:39-17:39-  2960.5 40108mNRSindurwa Railway Station, Uttar Pradesh
20.2AKJAkbarGanj (1)  17:51-17:51-  2968.5 40112mNRSH 31, Uttar Pradesh
20.3CHBSChaubisi (1)X  18:03-18:03-  2977.0 40119mNRNational Highway 56, Uttar Pradesh
20.4HGHHaidergarh (2)X  18:16-18:16-  2985.5 40116mNRState Highway 13, Uttar Pradesh
20.5TEGTirbediganj (2)X  18:27-18:27-  2993.2 40116mNRMangalpur, Uttar Pradesh
20.6CDRLChhandrauli (2)  18:39-18:39-  21001.4 40120mNRChhandrauli, Uttar Pradesh
20.7RMNRRahmatnagar (2)  18:53-18:53-  21010.3 40117mNRAmethi, Uttar Pradesh
20.8APGAnupganj (2)  19:01-19:01-  21015.9 40118mNRBaliyakhera, Uttar Pradesh
20.9BKKSBakkas (2)X  19:13-19:13-  21024.1 40121mNRBakas, Uttar Pradesh
20.10UTRUtraitia Junction (2)  19:22-19:22-  21030.1 40124mNRLucknow, Uttar Pradesh
20.11BHAWBlock Hut A  19:29-19:29-  21034.6 40121mNRLucknow, Uttar Pradesh
20.12LBHDilkusha Cabin  19:34-19:34-  21038.1 40116mNRLucknow, Uttar Pradesh
21LKOLucknow Charbagh (9)  19:40+2:3919:50+2:4610m121042.266123mNR226004, Uttar Pradesh
21.1LNWTLucknow West  19:52-19:52-  21043.9 66123mNRLucknow, Uttar Pradesh
21.2AMGAlamnagar (3)X  19:56-19:56-  21049.3 66126mNRLucknow, Uttar Pradesh
21.3KKJKakori (3)  20:03-20:03-  21056.8 66129mNRSH 25, Uttar Pradesh
21.4MLDMalihabadX  20:12-20:12-  21066.4 66130mNRMalihabad, Uttar Pradesh
21.5DILDilawarnagarX  20:17-20:17-  21072.1 66133mNRSH 25, Uttar Pradesh
21.6RBDRahimabadX  20:24-20:24-  21079.7 66132mNRSH 25, Uttar Pradesh
21.7SANSandila (3)  20:34-20:34-  21090.7 66132mNRSandila, Uttar Pradesh
21.8UTAUmar TaliX  20:39-20:39-  21096.0 66135mNRHardoi, Uttar Pradesh
21.9DLQDalelnagar  20:44-20:44-  21102.4 66136mNRSH 25, Uttar Pradesh
21.10BLMBalamu Junction (4)  20:52-20:52-  21111.1 66139mNRBalamau, Uttar Pradesh
21.11BGHBaghauli  21:00-21:00-  21119.8 66141mNRsharda nehar, Uttar Pradesh
21.12MSTMasitXO  21:06-21:06-  21126.7 66141mNRSH 25, Uttar Pradesh
21.13KARKarnaX  21:13-21:13-  21134.2 66143mNRHardoi, Uttar Pradesh
21.14HRIHardoi (5)  21:22-21:22-  21144.1 66146mNRHardoi, Uttar Pradesh
21.15KUFKaurha  21:30-21:30-  21152.5 66148mNRSH 25, Uttar Pradesh
21.16BEGBehtagokulX  21:38-21:38-  21161.4 66152mNRBehtagokul, Uttar Pradesh
21.17TDPTodarpur  21:44-21:44-  21167.8 66147mNRSH 25, Uttar Pradesh
21.18SHRMSharma  21:46-21:46-  21170.4 66150mNRSH 25, Uttar Pradesh
21.19AJIAnjhi Shahabad  21:51-21:51-  21176.3 66148mNRAnjhi Shahabad, Uttar Pradesh
21.20AIGAlgawan  21:57-21:57-  21182.6 66152mNRAlgawan, Uttar Pradesh
21.21KHKahiliya  22:05-22:05-  21191.1 66152mNRSH 25, Uttar Pradesh
21.22PRPMPt Ram Prasad Bismil  22:09-22:09-  21195.5 66154mNRState Highway 25, Uttar Pradesh
21.23ROZARoza Junction (4)X  22:12-22:12-  21199.7 66156mNRShahjahanpur, Uttar Pradesh
21.24SXKShahjahanpur Court  22:18-22:18-  21206.1 66160mNRShahjahanpur, Uttar Pradesh
21.25SPNShahjahanpur Junction (3)X  22:19-22:19-  21207.1 66156mNRShahjahanpur, Uttar Pradesh
21.26BTRABanthra  22:27-22:27-  21215.5 66154mNRNH 24, Uttar Pradesh
21.27BHDHBahadurpur Halt  22:32-22:32-  21221.1 66154mNRNH 24, Uttar Pradesh
21.28TLHTilharX  22:36-22:36-  21225.2 66163mNRTilhar, Uttar Pradesh
21.29MILAMilakpur Halt  22:39-22:39-  21228.8 66158mNRDhanela, Uttar Pradesh
21.30MKMiranpur Katra  22:44-22:44-  21235.0 66162mNRShahjahanpur, Uttar Pradesh
21.31KSRKKasrak HaltX  22:45-22:45-  21235.2 66162mNRKatra, Uttar Pradesh
21.32BLPUBilpur  22:51-22:51-  21242.2 66161mNRFatehganj, Uttar Pradesh
21.33TSATisuaX  22:57-22:57-  21249.2 66165mNRNational Highway 24, Uttar Pradesh
21.34PMRPitambarpurX  23:05-23:05-  21257.7 66171mNRPitambarpur, Uttar Pradesh
21.35RYSRasuriyaX  23:14-23:14-  21267.2 66174mNRNH 24, Uttar Pradesh
21.36CHTIChanehti Junction  23:20-23:20-  21273.8 66168mNRBareilly, Uttar Pradesh
22BEBareilly Junction (4)X  23:23+2:4823:28+2:525m--21277.659174mNRBareilly, Uttar Pradesh
22.1BCBareilly City (4)  23:31-23:31-  21280.1 59171mNERBareilly, Uttar Pradesh
22.2CBJClutterbuckGanj  23:36-23:36-  21285.5 59172mNRBareilly, Uttar Pradesh
22.3PKRAParsa KheraX  23:41-23:41-  21290.5 59170mNRNH 24, Uttar Pradesh
22.4BTOBhitaura  23:47-23:47-  21295.8 59173mNRFatehganj Pashchimi, Uttar Pradesh
22.5DANDhaneta  23:53-23:53-  21302.1 59174mNRNH 24, Uttar Pradesh
22.6NRSNagaria Sadat  00:00-00:00-  31309.2 59177mNRNagaria Sadat, Uttar Pradesh
22.7MILMilak  00:09-00:09-  31317.5 59180mNRMilak, Uttar Pradesh
22.8DUNDuganpurX  00:15-00:15-  31323.4 59180mNRNH 24, Uttar Pradesh
22.9DAMDhamoraX  00:20-00:20-  31328.8 59183mNRNH 24, Uttar Pradesh
22.10SARShahzad Nagar  00:26-00:26-  31334.2 59186mNRNH 24, Uttar Pradesh
22.11RMURampur Junction (3)  00:32-00:32-  31340.6 59190mNRRampur, Uttar Pradesh
22.12MPHMundha PandeX  00:41-00:41-  31349.3 59191mNRNH 24, Uttar Pradesh
22.13DLPDalpatpurX  00:48-00:48-  31355.7 59195mNRNH-24, Uttar Pradesh
22.14KGFEKathghar East  00:55-00:55-  31362.6 59194mNRJama Masjid Bridge Road, Uttar Pradesh
22.15KGFRKathghar Right Bank  00:55-00:55-  31362.9 59199mNRMoradabad, Uttar Pradesh
22.16KGFKathghar  00:56-00:56-  31364.2 59199mNRMoradabad, Uttar Pradesh
23MBMoradabad Junction (7)  01:00+2:5801:10+2:5910m331367.964201mNRMoradabad, Uttar Pradesh
23.1MBWCMoradabad West  01:11-01:11-  31368.7 64195mNRMoradabad West, Uttar Pradesh
23.2HRHHarthalaX  01:15-01:15-  31373.3 64206mNRMoradabad, Uttar Pradesh
23.3AWPAghwanpurX  01:20-01:20-  31379.0 64212mNRMoradabad, Uttar Pradesh
23.4MTBMatlabpur  01:29-01:29-  31388.7 64216mNRMoradabad, Uttar Pradesh
23.5KNTKanth  01:37-01:37-  31397.3 64221mNRKanth, Uttar Pradesh
23.6MWEMewa NawadaX  01:43-01:43-  31403.8 64221mNRSahaspur, Uttar Pradesh
23.7SEOSeoharaX  01:53-01:53-  31413.9 64224mNRSeohara, Uttar Pradesh
23.8CAJChakraj Mal  01:59-01:59-  31420.6 64229mNRNagina, Uttar Pradesh
23.9DPRDhampur  02:06-02:06-  31427.6 64236mNRDhampur, Uttar Pradesh
23.10HBWHabibwalaX  02:11-02:11-  31432.9 64239mNRNagina, Uttar Pradesh
23.11PNIPuraini  02:16-02:16-  31438.6 64246mNRDhampur, Uttar Pradesh
23.12NGGNagina (3)  02:21-02:21-  31444.4 64247mNRNagina, Uttar Pradesh
23.13BEKBundkiX  02:30-02:30-  31454.2 64255mNRNagina, Uttar Pradesh
23.14MSDRMurshadpurX  02:34-02:34-  31457.8 64258mNRNagina, Uttar Pradesh
23.15NBDNajibabad Junction (3)XO  02:42-02:42-  31466.8 64269mNRNajibabad, Uttar Pradesh
23.16FZLFazalpur (2)X  02:52-02:52-  31477.9 64256mNRState Highway 49, Uttar Pradesh
23.17CNKChandok (2)  02:59-02:59-  31484.8 64257mNRChandok, Uttar Pradesh
23.18BLWBalawali (2)X  03:05-03:05-  31491.6 64242mNRNational Highway 119, Uttar Pradesh
23.19RSIRaisi  03:10-03:10-  31497.3 64231mNRLaksar, Uttarakhand
23.20LRJLaksar Junction (4)X  03:21-03:21-  31508.8 64238mNRLaksar, Uttarakhand
23.21LRJCLaksar North Cabin  03:23-03:23-  31510.8 64238mNRMain Bazar Road, Uttarakhand
23.22DSNIDausni (2)  03:26-03:26-  31513.8 64244mNRLaksar, Uttarakhand
23.23LDRLandaura (2)  03:30-03:30-  31518.7 64261mNRHaridwar, Uttarakhand
23.24DNRADhandhera (2)  03:35-03:35-  31523.7 64267mNRRoorkee - 247667, Uttarakhand
23.25RKRoorkee (3)O  03:38-03:38-  31526.6 64264mNRRoorkee - 247667, Uttarakhand
23.26IQBIqbalpur  03:45-03:45-  31534.0 64267mNRNational Highway 73, Uttar Pradesh
23.27CDLChodiala  03:51-03:51-  31540.6 64270mNRMDR 163W, Uttar Pradesh
23.28SNKESunehti Kharkhari (2)X  03:56-03:56-  31546.2 64216mNRSunehti Kharkhr, Uttar Pradesh
23.29BAEBaliakheri  04:01-04:01-  31551.3 64274mNRSaharanpur, Uttar Pradesh
23.30HNCHindan CabinX  04:04-04:04-  31555.1 64276mNRMDR 163W, Uttar Pradesh
24SRESaharanpur Junction (6)X  04:10+3:1004:20+3:1210m431561.370276mNRSaharanpur, Uttar Pradesh
24.1PKYPilkhani (2)  04:27-04:27-  31568.9 70277mNRSaharanpur, Uttar Pradesh
24.2SSWSarsawa (2)X  04:31-04:31-  31574.5 70269mNRSaharanpur, Uttar Pradesh
24.3KNZKalanour (2)  04:40-04:40-  31584.9 70272mNRNational Highway 73, Haryana
25JUDYamunanagar-Jagadhri (3)  04:46+3:2404:48+3:242m331591.459275mNRYamunanagar, Haryana
25.1JUDWJagadhri Workshop (2)X  04:53-04:53-  31596.4 59280mNRRailway Workshop Road, Haryana
25.2DZPDarazpur (2)X  04:58-04:58-  31601.1 59276mNRYamunanagar, Haryana
25.3MFBMustafabad (2)  05:06-05:06-  31608.8 59281mNRNational Highway 73, Haryana
25.4RAABarara (2)X  05:15-05:15-  31617.6 59279mNRBarara, Haryana
25.5TDWTandwal (2)  05:20-05:20-  31623.0 59279mNRState Highway 31, Haryana
25.6KESKesri (2)X  05:27-05:27-  31629.2 59275mNRAmbala, Haryana
25.7DOKYDukheri (2)  05:33-05:33-  31635.1 59275mNRDevsthali Rd, Haryana
26UMBAmbala Cantt. Junction (7)X  05:40+3:2305:48+3:248m231642.474278mNRAmbala 133001, Haryana
26.1UBCAmbala City (3)X  05:54-05:54-  31650.0 74273mNRNH-1, Haryana
26.2SMUSambhu (2)  06:02-06:02-  31659.5 74270mNRNH-1, Punjab
26.3RPJRajpura Junction (3)  06:11-06:11-  31670.5 74272mNRNH-1, Punjab
26.4SBJSarai Banjara (2)  06:18-06:18-  31679.6 74268mNRFatehgarh Sahib, Punjab
26.5SDYSadhoo Garh (2)  06:23-06:23-  31685.9 74268mNRFatehgarh Sahib, Punjab
26.6SIRSirhind Junction (3)X  06:31-06:31-  31695.3 74271mNRSirhind, Punjab
26.7GVGMandi Gobindgarh (2)  06:39-06:39-  31705.1 74268mNRMandi Gobindgarh, Punjab
26.8KNNKhanna (3)  06:45-06:45-  31713.2 74269mNRNH 1, Punjab
26.9CHAChawapail (2)X  06:54-06:54-  31724.1 74267mNRLudhiana, Punjab
26.10JSPNJaspalon  06:59-06:59-  31729.5 74261mNRJaspalo, Punjab
26.11DOADoraha (2)O  07:02-07:02-  31733.6 74261mNRDoraha, Punjab
26.12SNLSanehwal (3)X  07:08-07:08-  31740.9 74260mNRLudhiana, Punjab
26.13DDLDhandari Kalan (3)  07:14-07:14-  31748.6 74254mNRDhandari Kalan, Punjab
26.14BHOIDhandari Kalan Block Hut (2)X  07:17-07:17-  31752.9 74251mNRLudhiana, Punjab
27LDHLudhiana Junction (7)X  07:20+3:4407:30+3:5410m331756.056246mNRLudhiana 141001, Punjab
27.1LDWLadhowal (2)X  07:39-07:39-  31764.8 56243mNRLadhowal, Punjab
27.2PHRPhillaur Junction (3)  07:44-07:44-  31769.1 56246mNRPhillaur, Punjab
27.3BTTNBhatian (2)  07:50-07:50-  31775.2 56244mNRBhattian, Punjab
27.4GRYGoraya (2)X  07:58-07:58-  31781.8 56240mNRGoraya, Punjab
27.5MAULMauli (2)  08:03-08:03-  31787.4 56240mNRAsian Highway 2, Punjab
27.6MLIHMauli Halt (2)X  08:04-08:04-  31787.5 56242mNRphagwara, Punjab
28PGWPhagwara Junction (3)X  08:08+3:5108:10+3:522m231791.765245mNRPhagwara, Punjab
28.1CEUChiheru (2)  08:17-08:17-  31799.5 65238mNRDistt Kapurthala 144411, Punjab
29JRCJalandhar Cantt. Junction (3)X  08:25+3:5308:30+3:555m331808.067239mNRNear Rama Mandi, Punjab
29.1SCPDSuchipind (4)  08:34-08:34-  31812.7 67238mNRJalandhar, Punjab
29.2DREDhogri  08:41-08:41-  31820.2 67238mNRDhogri, Punjab
29.3AWLAlawalpur (2)  08:43-08:43-  31822.2 67240mNRJalandhar, Punjab
29.4BSPDBiaspind  08:45-08:45-  31825.2 67243mNRNational Highway 1A, Punjab
29.5KKLKala Bakra (2)  08:48-08:48-  31827.9 67245mNRNational Highway 1A, Punjab
29.6MHWLMachrowar  08:52-08:52-  31832.4 67243mNRShakarpur, Punjab
29.7BPRSBhogpur Sirwal (2)  08:56-08:56-  31836.9 67242mNRBhogpur, Punjab
29.8SWUSanaura  08:58-08:58-  31840.0 67239mNRSanaura, Punjab
29.9CGHCholang (2)  09:02-09:02-  31844.1 67242mNRAdda Cholang, Punjab
29.10TDOTanda Urmar (3)  09:08-09:08-  31850.2 67239mNRUrmar Tanda, Punjab
29.11KZXKhudda Korala (2)  09:12-09:12-  31855.7 67243mNRKhuda, Punjab
29.12GSBGarna Sahib (2)  09:18-09:18-  31862.3 67250mNRNational Highway 1A, Punjab
29.13DZADasuya (2)  09:21-09:21-  31865.6 67251mNRDasuya distt. hoshiarpur, Punjab
29.14UCBUnchi Bassi (2)  09:27-09:27-  31872.2 67252mNRNational Highway 1A, Punjab
29.15GPWGhaunspurX  09:29-09:29-  31873.8 67253mNRGhaunspur, Punjab
29.16MEXMukerian (3)  09:35-09:35-  31880.6 67257mNRMukerian distt. hosiharpur, Punjab
29.17MSBRMusahibpur  09:39-09:39-  31885.2 67256mNRMukerian, Punjab
29.18BNGLBhangala (2)  09:43-09:43-  31889.9 67259mNRNational Highway 1A, Punjab
29.19CKKNChak KalanO  09:50-09:50-  31897.6 67257mNRNational Highway 1A, Punjab
29.20BLCABeas Block Hut  09:51-09:51-  31899.3 67259mNRdistt. hoshiarpur, Punjab
29.21MRTLMirthal (2)  09:52-09:52-  31900.6 67261mNRMirthal, Punjab
29.22GILAGhiala (2)  09:58-09:58-  31907.0 67300mNRMDR 42, Punjab
29.23KNDIKandrori (2)  10:02-10:02-  31911.1 67308mNRDistrict Kangra Pin- 176402, Himachal Pradesh
29.24BHCHBlock Cabin Chakki Bank  10:08-10:08-  31917.8 67328mNRReserve Jangal Damtal, Punjab
30PTKCPathankot Cantt (3)  10:10+3:5910:15+4:015m231920.528328mNRPathankot By Pass Ph:0186-2251594, Punjab
30.1CHKBChakki Bank (3)  10:15-10:15-  31920.6 28328mNRPathankot By Pass, Punjab
30.2BHRLBharoli Junction (3)X  10:21-10:21-  31923.1 28320mNRBharoli, Punjab
30.3SJNPSujanpur (3)  10:32-10:32-  31928.5 28335mNRSujanpur, Punjab
30.4MDPBMadhopur Punjab (2)X  10:47-10:47-  31935.4 28357mNRMadhopur, Punjab
31KTHUKathua (2)X  11:04+3:4411:06+3:432m131943.654396mNRdistt. kathua, Jammu and Kashmir
31.1BDHYBudhi (2)  11:20-11:20-  31956.0 54363mNRdistt. kathua, Jammu and Kashmir
31.2CHNRChhan Arorian (2)  11:28-11:28-  31963.4 54390mNRChhan Arorian distt. kathua, Jammu and Kashmir
31.3CKDLChakdayala (2)  11:34-11:34-  31968.9 54396mNRdistt. kathua, Jammu and Kashmir
31.4HRNRHira Nagar (2)  11:38-11:38-  31972.4 54380mNRHiranagar, Jammu and Kashmir
31.5GHGLGhagwal (2)X  11:44-11:44-  31978.1 54370mNRdist.samba, Jammu and Kashmir
31.6SMBXSamba (2)  11:54-11:54-  31987.2 54365mNRDist. Samba, Jammu and Kashmir
31.7BHBTBasantar Block Hut  12:02-12:02-  31994.8 54356mNRdistt. samba, Jammu and Kashmir
31.8VJPJVijaypur Jammu (2)  12:07-12:07-  31998.6 54353mNRdistt. samba, Jammu and Kashmir
31.9BBMNBari Brahman (2)  12:20-12:20-  32011.2 54333mNRdistt. samba, Jammu and Kashmir
32JAT•Jammu Tawi (3)•  12:30+3:22-332019.9-337mNRJammu 180002, Jammu and Kashmir
Scroll to Top
Scroll to Bottom